createdAt,value
2022-07-30T00:00:23.803Z,101742.34
2022-07-30T00:02:53.129Z,101743.00
2022-07-30T00:05:20.402Z,101746.94
2022-07-30T00:07:47.496Z,101743.91
2022-07-30T00:10:14.414Z,101744.47
2022-07-30T00:12:41.590Z,101741.69
2022-07-30T00:15:09.238Z,101749.69
2022-07-30T00:17:36.075Z,101743.50
2022-07-30T00:20:03.574Z,101737.31
2022-07-30T00:22:31.125Z,101733.19
2022-07-30T00:24:58.123Z,101727.38
2022-07-30T00:27:25.386Z,101732.66
2022-07-30T00:29:52.237Z,101723.97
2022-07-30T00:32:19.192Z,101724.06
2022-07-30T00:34:46.244Z,101728.84
2022-07-30T00:37:13.167Z,101726.72
2022-07-30T00:39:39.992Z,101723.47
2022-07-30T00:42:06.889Z,101724.38
2022-07-30T00:44:33.927Z,101729.19
2022-07-30T00:47:00.975Z,101726.41
2022-07-30T00:49:28.162Z,101719.09
2022-07-30T00:51:55.584Z,101720.53
2022-07-30T00:54:22.563Z,101719.00
2022-07-30T00:56:49.996Z,101720.38
2022-07-30T00:59:17.441Z,101721.84
2022-07-30T01:01:44.259Z,101716.63
2022-07-30T01:04:11.902Z,101714.19
2022-07-30T01:06:40.237Z,101713.03
2022-07-30T01:09:07.764Z,101713.31
2022-07-30T01:11:38.205Z,101708.47
2022-07-30T01:14:06.836Z,101695.31
2022-07-30T01:16:35.765Z,101704.41
2022-07-30T01:19:28.426Z,101698.66
2022-07-30T01:22:05.966Z,101697.25
2022-07-30T01:24:42.133Z,101695.53
2022-07-30T01:27:11.666Z,101692.63
2022-07-30T01:29:40.968Z,101696.94
2022-07-30T01:32:10.927Z,101696.84
2022-07-30T01:34:39.456Z,101694.66
2022-07-30T01:37:09.015Z,101689.13
2022-07-30T01:39:38.539Z,101689.88
2022-07-30T01:42:08.523Z,101691.06
2022-07-30T01:44:38.008Z,101688.78
2022-07-30T01:47:06.346Z,101686.50
2022-07-30T01:49:36.651Z,101686.94
2022-07-30T01:52:05.092Z,101693.97
2022-07-30T01:54:33.790Z,101687.94
2022-07-30T01:57:01.967Z,101689.22
2022-07-30T01:59:34.433Z,101683.84
2022-07-30T02:02:02.419Z,101687.84
2022-07-30T02:04:30.022Z,101688.28
2022-07-30T02:07:22.314Z,101686.91
2022-07-30T02:09:58.580Z,101683.22
2022-07-30T02:12:29.744Z,101681.09
2022-07-30T02:15:14.283Z,101680.94
2022-07-30T02:17:56.633Z,101676.28
2022-07-30T02:20:29.494Z,101676.69
2022-07-30T02:23:03.291Z,101677.03
2022-07-30T02:25:33.701Z,101680.22
2022-07-30T02:28:10.030Z,101678.69
2022-07-30T02:30:43.087Z,101677.72
2022-07-30T02:33:12.724Z,101678.44
2022-07-30T02:35:41.219Z,101672.91
2022-07-30T02:38:11.887Z,101665.88
2022-07-30T02:40:42.014Z,101670.19
2022-07-30T02:43:10.018Z,101671.00
2022-07-30T02:45:38.112Z,101666.38
2022-07-30T02:48:07.787Z,101665.28
2022-07-30T02:50:35.789Z,101675.88
2022-07-30T02:53:06.834Z,101678.06
2022-07-30T02:55:35.558Z,101679.75
2022-07-30T02:58:05.697Z,101671.78
2022-07-30T03:00:34.628Z,101673.22
2022-07-30T03:03:05.707Z,101681.00
2022-07-30T03:05:33.140Z,101677.63
2022-07-30T03:08:01.704Z,101676.38
2022-07-30T03:10:30.202Z,101673.78
2022-07-30T03:12:59.778Z,101673.78
2022-07-30T03:15:28.912Z,101675.03
2022-07-30T03:17:57.640Z,101676.81
2022-07-30T03:20:28.351Z,101667.22
2022-07-30T03:22:58.378Z,101665.91
2022-07-30T03:25:29.746Z,101664.94
2022-07-30T03:27:59.337Z,101664.94
2022-07-30T03:30:28.501Z,101670.56
2022-07-30T03:32:56.579Z,101671.94
2022-07-30T03:35:27.604Z,101673.84
2022-07-30T03:38:00.512Z,101667.72
2022-07-30T03:40:29.094Z,101673.13
2022-07-30T03:42:56.464Z,101673.66
2022-07-30T03:45:25.216Z,101675.47
2022-07-30T03:47:57.432Z,101674.38
2022-07-30T03:50:24.799Z,101674.09
2022-07-30T03:52:52.705Z,101678.47
2022-07-30T03:55:20.020Z,101685.22
2022-07-30T03:57:49.973Z,101684.06
2022-07-30T04:00:18.941Z,101686.94
2022-07-30T04:02:52.136Z,101678.84
2022-07-30T04:05:47.316Z,101674.78
2022-07-30T04:08:14.279Z,101680.94
2022-07-30T04:10:44.168Z,101680.50
2022-07-30T04:13:40.461Z,101687.84
2022-07-30T04:16:40.996Z,101687.78
2022-07-30T04:19:03.572Z,101688.56
2022-07-30T04:21:33.509Z,101691.63
2022-07-30T04:24:05.202Z,101691.97
2022-07-30T04:26:36.218Z,101694.22
2022-07-30T04:29:07.515Z,101706.25
2022-07-30T04:31:38.158Z,101703.88
2022-07-30T04:34:27.230Z,101708.81
2022-07-30T04:36:54.437Z,101709.09
2022-07-30T04:39:21.350Z,101711.03
2022-07-30T04:41:49.526Z,101710.53
2022-07-30T04:44:31.647Z,101704.72
2022-07-30T04:47:18.702Z,101704.06
2022-07-30T04:49:58.249Z,101711.88
2022-07-30T04:52:30.035Z,101700.41
2022-07-30T04:55:05.398Z,101708.38
2022-07-30T04:57:35.536Z,101703.88
2022-07-30T05:00:02.504Z,101704.91
2022-07-30T05:02:33.791Z,101713.59
2022-07-30T05:05:01.675Z,101710.31
2022-07-30T05:07:31.613Z,101711.22
2022-07-30T05:09:59.739Z,101712.78
2022-07-30T05:12:39.590Z,101717.69
2022-07-30T05:15:08.093Z,101715.00
2022-07-30T05:17:36.049Z,101711.09
2022-07-30T05:20:06.248Z,101720.72
2022-07-30T05:22:50.618Z,101722.81
2022-07-30T05:25:19.298Z,101720.19
2022-07-30T05:27:46.310Z,101720.06
2022-07-30T05:30:13.320Z,101716.72
2022-07-30T05:32:46.436Z,101712.97
2022-07-30T05:35:14.196Z,101723.41
2022-07-30T05:37:41.072Z,101722.47
2022-07-30T05:40:08.551Z,101726.22
2022-07-30T05:43:02.083Z,101724.00
2022-07-30T05:45:29.160Z,101713.88
2022-07-30T05:47:56.124Z,101717.41
2022-07-30T05:50:23.165Z,101715.72
2022-07-30T05:52:50.399Z,101711.75
2022-07-30T05:55:42.785Z,101713.09
2022-07-30T05:58:18.513Z,101713.81
2022-07-30T06:00:46.159Z,101711.88
2022-07-30T06:03:13.945Z,101710.78
2022-07-30T06:06:05.167Z,101709.09
2022-07-30T06:08:32.457Z,101711.94
2022-07-30T06:10:59.931Z,101707.28
2022-07-30T06:13:27.336Z,101707.41
2022-07-30T06:15:54.245Z,101715.66
2022-07-30T06:18:23.152Z,101715.34
2022-07-30T06:20:54.285Z,101715.44
2022-07-30T06:23:39.798Z,101718.53
2022-07-30T06:26:15.386Z,101726.31
2022-07-30T06:28:43.255Z,101729.59
2022-07-30T06:31:17.439Z,101731.00
2022-07-30T06:33:44.506Z,101731.13
2022-07-30T06:36:14.101Z,101743.28
2022-07-30T06:39:00.060Z,101727.31
2022-07-30T06:41:49.956Z,101732.34
2022-07-30T06:44:16.915Z,101726.41
2022-07-30T06:47:20.689Z,101729.50
2022-07-30T06:49:47.505Z,101725.09
2022-07-30T06:52:18.531Z,101728.13
2022-07-30T06:54:50.450Z,101728.25
2022-07-30T06:57:43.455Z,101725.97
2022-07-30T07:00:30.406Z,101734.09
2022-07-30T07:03:01.456Z,101735.59
2022-07-30T07:05:38.499Z,101735.91
2022-07-30T07:08:05.594Z,101739.69
2022-07-30T07:10:37.432Z,101735.47
2022-07-30T07:13:20.238Z,101744.84
2022-07-30T07:15:47.212Z,101739.16
2022-07-30T07:18:18.876Z,101738.28
2022-07-30T07:21:15.713Z,101735.16
2022-07-30T07:23:43.427Z,101735.66
2022-07-30T07:26:33.269Z,101738.31
2022-07-30T07:29:04.969Z,101736.38
2022-07-30T07:32:07.441Z,101735.69
2022-07-30T07:34:20.084Z,101736.72
2022-07-30T07:36:47.358Z,101743.44
2022-07-30T07:39:14.998Z,101742.34
2022-07-30T07:41:43.892Z,101741.75
2022-07-30T07:44:19.238Z,101747.63
2022-07-30T07:46:46.131Z,101745.19
2022-07-30T07:49:13.470Z,101747.88
2022-07-30T07:51:51.678Z,101747.50
2022-07-30T07:54:22.863Z,101737.09
2022-07-30T07:56:52.939Z,101743.06
2022-07-30T07:59:23.671Z,101738.16
2022-07-30T08:01:58.638Z,101739.72
2022-07-30T08:04:48.425Z,101740.06
2022-07-30T08:07:27.416Z,101747.75
2022-07-30T08:10:15.082Z,101748.97
2022-07-30T08:13:05.304Z,101751.41
2022-07-30T08:15:34.683Z,101754.06
2022-07-30T08:18:33.851Z,101745.53
2022-07-30T08:21:10.760Z,101742.84
2022-07-30T08:23:42.150Z,101744.19
2022-07-30T08:26:09.596Z,101737.34
2022-07-30T08:28:36.875Z,101736.91
2022-07-30T08:31:06.472Z,101746.34
2022-07-30T08:33:33.406Z,101739.75
2022-07-30T08:36:04.251Z,101739.88
2022-07-30T08:38:36.247Z,101745.75
2022-07-30T08:41:03.105Z,101739.63
2022-07-30T08:43:31.063Z,101747.53
2022-07-30T08:45:59.480Z,101747.94
2022-07-30T08:48:37.511Z,101745.44
2022-07-30T08:51:05.235Z,101742.13
2022-07-30T08:53:36.019Z,101741.34
2022-07-30T08:56:04.737Z,101744.97
2022-07-30T08:58:35.069Z,101737.19
2022-07-30T09:01:02.556Z,101752.72
2022-07-30T09:03:29.800Z,101743.38
2022-07-30T09:06:02.482Z,101750.63
2022-07-30T09:08:29.565Z,101757.31
2022-07-30T09:10:56.582Z,101756.94
2022-07-30T09:13:29.311Z,101753.19
2022-07-30T09:15:58.282Z,101748.19
2022-07-30T09:18:31.926Z,101758.19
2022-07-30T09:21:00.954Z,101757.53
2022-07-30T09:23:30.326Z,101756.38
2022-07-30T09:26:17.415Z,101756.47
2022-07-30T09:28:44.199Z,101755.97
2022-07-30T09:31:14.511Z,101752.75
2022-07-30T09:34:00.487Z,101747.63
2022-07-30T09:37:04.190Z,101762.28
2022-07-30T09:39:59.286Z,101764.13
2022-07-30T09:43:04.321Z,101755.41
2022-07-30T09:45:34.802Z,101749.19
2022-07-30T09:48:03.331Z,101759.28
2022-07-30T09:50:31.050Z,101753.19
2022-07-30T09:53:11.997Z,101760.66
2022-07-30T09:55:42.578Z,101761.34
2022-07-30T09:58:12.797Z,101760.69
2022-07-30T10:00:44.305Z,101759.66
2022-07-30T10:03:43.920Z,101774.75
2022-07-30T10:06:37.983Z,101769.75
2022-07-30T10:09:37.266Z,101769.63
2022-07-30T10:12:10.468Z,101768.88
2022-07-30T10:14:42.712Z,101762.56
2022-07-30T10:17:13.505Z,101759.97
2022-07-30T10:19:45.974Z,101771.00
2022-07-30T10:22:37.695Z,101770.66
2022-07-30T10:25:31.002Z,101769.03
2022-07-30T10:28:38.418Z,101772.78
2022-07-30T10:31:47.250Z,101772.31
2022-07-30T10:33:53.422Z,101767.81
2022-07-30T10:36:24.414Z,101770.78
2022-07-30T10:38:53.145Z,101773.97
2022-07-30T10:41:48.463Z,101762.50
2022-07-30T10:44:20.778Z,101765.50
2022-07-30T10:47:07.289Z,101769.00
2022-07-30T10:49:41.177Z,101774.44
2022-07-30T10:52:10.494Z,101773.03
2022-07-30T10:54:47.682Z,101771.19
2022-07-30T10:57:31.876Z,101778.47
2022-07-30T11:00:00.942Z,101775.31
2022-07-30T11:02:30.696Z,101783.72
2022-07-30T11:05:17.344Z,101786.47
2022-07-30T11:07:47.345Z,101783.31
2022-07-30T11:10:34.494Z,101788.00
2022-07-30T11:13:01.732Z,101790.34
2022-07-30T11:15:56.653Z,101794.28
2022-07-30T11:18:25.572Z,101784.81
2022-07-30T11:21:20.613Z,101788.06
2022-07-30T11:23:53.376Z,101784.91
2022-07-30T11:26:41.722Z,101784.19
2022-07-30T11:29:50.606Z,101778.66
2022-07-30T11:32:33.264Z,101787.91
2022-07-30T11:35:18.194Z,101786.28
2022-07-30T11:38:06.472Z,101772.03
2022-07-30T11:40:42.179Z,101783.19
2022-07-30T11:43:35.087Z,101770.28
2022-07-30T11:46:29.308Z,101774.91
2022-07-30T11:49:08.842Z,101784.41
2022-07-30T11:51:43.597Z,101790.09
2022-07-30T11:54:11.719Z,101785.06
2022-07-30T11:56:49.538Z,101781.25
2022-07-30T11:59:16.681Z,101788.66
2022-07-30T12:01:43.645Z,101797.00
2022-07-30T12:04:10.526Z,101787.03
2022-07-30T12:06:45.565Z,101798.22
2022-07-30T12:09:12.931Z,101794.38
2022-07-30T12:11:40.018Z,101794.72
2022-07-30T12:14:06.960Z,101791.53
2022-07-30T12:16:34.691Z,101800.50
2022-07-30T12:19:03.816Z,101803.06
2022-07-30T12:21:30.943Z,101803.81
2022-07-30T12:24:03.584Z,101797.59
2022-07-30T12:26:32.846Z,101795.41
2022-07-30T12:29:14.026Z,101797.97
2022-07-30T12:31:41.876Z,101790.72
2022-07-30T12:34:25.724Z,101798.97
2022-07-30T12:36:52.992Z,101799.50
2022-07-30T12:39:24.851Z,101802.56
2022-07-30T12:41:53.748Z,101800.06
2022-07-30T12:44:36.920Z,101794.28
2022-07-30T12:47:06.540Z,101792.13
2022-07-30T12:49:39.447Z,101777.25
2022-07-30T12:52:35.820Z,101789.00
2022-07-30T12:55:12.890Z,101794.78
2022-07-30T12:57:52.607Z,101793.75
2022-07-30T13:00:20.349Z,101786.69
2022-07-30T13:02:47.673Z,101790.66
2022-07-30T13:05:14.631Z,101783.50
2022-07-30T13:07:59.661Z,101782.94
2022-07-30T13:10:31.163Z,101781.59
2022-07-30T13:12:59.603Z,101781.75
2022-07-30T13:15:26.581Z,101786.25
2022-07-30T13:17:53.496Z,101782.53
2022-07-30T13:20:21.104Z,101774.69
2022-07-30T13:22:47.969Z,101781.22
2022-07-30T13:25:14.800Z,101784.78
2022-07-30T13:27:41.675Z,101786.56
2022-07-30T13:30:09.295Z,101777.69
2022-07-30T13:32:36.148Z,101780.94
2022-07-30T13:35:03.259Z,101784.53
2022-07-30T13:37:37.737Z,101793.84
2022-07-30T13:40:06.506Z,101793.97
2022-07-30T13:42:33.495Z,101795.00
2022-07-30T13:45:01.027Z,101775.91
2022-07-30T13:47:27.987Z,101805.47
2022-07-30T13:49:55.022Z,101800.22
2022-07-30T13:52:21.846Z,101790.13
2022-07-30T13:54:51.276Z,101791.41
2022-07-30T13:57:18.403Z,101784.41
2022-07-30T13:59:45.334Z,101785.38
2022-07-30T14:02:13.156Z,101792.56
2022-07-30T14:04:39.999Z,101792.84
2022-07-30T14:07:06.818Z,101783.84
2022-07-30T14:09:33.627Z,101782.84
2022-07-30T14:12:11.710Z,101783.13
2022-07-30T14:14:38.530Z,101784.03
2022-07-30T14:17:05.421Z,101777.81
2022-07-30T14:19:32.372Z,101777.69
2022-07-30T14:21:59.185Z,101782.34
2022-07-30T14:24:26.045Z,101772.00
2022-07-30T14:26:57.682Z,101786.69
2022-07-30T14:29:26.460Z,101776.41
2022-07-30T14:31:53.959Z,101770.19
2022-07-30T14:34:20.803Z,101781.75
2022-07-30T14:36:47.603Z,101777.31
2022-07-30T14:39:14.882Z,101784.28
2022-07-30T14:41:43.082Z,101787.22
2022-07-30T14:44:12.285Z,101793.91
2022-07-30T14:46:52.478Z,101790.13
2022-07-30T14:49:27.153Z,101789.91
2022-07-30T14:51:54.424Z,101791.56
2022-07-30T14:54:21.770Z,101786.47
2022-07-30T14:56:49.405Z,101789.47
2022-07-30T14:59:16.959Z,101790.03
2022-07-30T15:01:43.923Z,101795.91
2022-07-30T15:04:11.560Z,101778.13
2022-07-30T15:06:40.733Z,101796.25
2022-07-30T15:09:08.891Z,101780.03
2022-07-30T15:12:04.347Z,101779.88
2022-07-30T15:14:22.867Z,101784.59
2022-07-30T15:16:51.598Z,101789.91
2022-07-30T15:19:18.425Z,101789.03
2022-07-30T15:21:45.270Z,101790.03
2022-07-30T15:24:12.218Z,101778.66
2022-07-30T15:26:39.315Z,101781.44
2022-07-30T15:29:09.254Z,101779.31
2022-07-30T15:31:38.553Z,101795.59
2022-07-30T15:34:10.665Z,101779.84
2022-07-30T15:36:39.046Z,101780.13
2022-07-30T15:39:06.732Z,101785.28
2022-07-30T15:41:34.061Z,101784.13
2022-07-30T15:44:00.966Z,101790.09
2022-07-30T15:46:27.897Z,101784.56
2022-07-30T15:48:54.982Z,101787.06
2022-07-30T15:51:22.265Z,101786.09
2022-07-30T15:53:49.227Z,101792.41
2022-07-30T15:56:16.130Z,101788.97
2022-07-30T15:58:43.652Z,101780.97
2022-07-30T16:01:10.788Z,101794.63
2022-07-30T16:03:37.777Z,101795.69
2022-07-30T16:06:04.646Z,101789.38
2022-07-30T16:08:31.476Z,101788.16
2022-07-30T16:10:58.551Z,101789.41
2022-07-30T16:13:25.457Z,101783.66
2022-07-30T16:15:52.244Z,101791.94
2022-07-30T16:18:19.032Z,101789.56
2022-07-30T16:20:45.901Z,101788.13
2022-07-30T16:23:16.981Z,101790.16
2022-07-30T16:25:46.435Z,101800.66
2022-07-30T16:28:13.272Z,101788.47
2022-07-30T16:30:45.987Z,101795.38
2022-07-30T16:33:19.145Z,101807.97
2022-07-30T16:35:49.289Z,101806.44
2022-07-30T16:38:17.928Z,101795.81
2022-07-30T16:40:45.400Z,101799.56
2022-07-30T16:43:12.261Z,101800.81
2022-07-30T16:45:39.518Z,101791.59
2022-07-30T16:48:06.619Z,101805.78
2022-07-30T16:50:33.483Z,101810.44
2022-07-30T16:53:00.562Z,101804.63
2022-07-30T16:55:27.584Z,101815.09
2022-07-30T16:57:54.429Z,101810.38
2022-07-30T17:00:21.367Z,101823.69
2022-07-30T17:02:48.193Z,101823.31
2022-07-30T17:05:15.054Z,101822.97
2022-07-30T17:07:42.125Z,101821.53
2022-07-30T17:10:11.006Z,101828.38
2022-07-30T17:12:39.321Z,101821.75
2022-07-30T17:15:07.872Z,101819.72
2022-07-30T17:17:34.870Z,101819.69
2022-07-30T17:20:03.798Z,101821.16
2022-07-30T17:22:30.985Z,101823.16
2022-07-30T17:24:57.857Z,101821.25
2022-07-30T17:27:28.782Z,101823.97
2022-07-30T17:29:56.125Z,101824.59
2022-07-30T17:32:23.328Z,101823.97
2022-07-30T17:34:50.241Z,101819.03
2022-07-30T17:37:17.613Z,101829.56
2022-07-30T17:40:26.317Z,101821.22
2022-07-30T17:42:31.811Z,101822.09
2022-07-30T17:45:01.154Z,101819.31
2022-07-30T17:47:28.472Z,101817.28
2022-07-30T17:49:56.113Z,101820.25
2022-07-30T17:52:26.378Z,101821.09
2022-07-30T17:54:53.866Z,101820.78
2022-07-30T17:57:21.237Z,101825.13
2022-07-30T17:59:48.081Z,101822.91
2022-07-30T18:02:14.996Z,101821.63
2022-07-30T18:04:41.820Z,101824.69
2022-07-30T18:07:08.710Z,101829.38
2022-07-30T18:09:40.163Z,101820.41
2022-07-30T18:12:07.953Z,101823.28
2022-07-30T18:14:34.805Z,101825.91
2022-07-30T18:17:02.818Z,101824.34
2022-07-30T18:19:29.908Z,101824.59
2022-07-30T18:21:57.052Z,101828.06
2022-07-30T18:24:24.976Z,101840.84
2022-07-30T18:26:52.742Z,101836.34
2022-07-30T18:29:20.939Z,101834.13
2022-07-30T18:31:48.171Z,101836.59
2022-07-30T18:34:15.335Z,101832.16
2022-07-30T18:39:09.014Z,101832.00
2022-07-30T18:41:35.928Z,101822.69
2022-07-30T18:44:02.839Z,101829.25
2022-07-30T18:46:29.827Z,101822.16
2022-07-30T18:48:57.033Z,101825.03
2022-07-30T18:51:25.290Z,101821.13
2022-07-30T18:53:55.600Z,101818.06
2022-07-30T18:56:22.418Z,101818.50
2022-07-30T18:58:49.287Z,101820.78
2022-07-30T19:01:18.343Z,101837.16
2022-07-30T19:03:45.952Z,101835.22
2022-07-30T19:06:12.820Z,101838.78
2022-07-30T19:08:39.638Z,101832.97
2022-07-30T19:11:06.437Z,101831.38
2022-07-30T19:13:33.285Z,101831.69
2022-07-30T19:16:00.218Z,101830.09
2022-07-30T19:18:27.252Z,101833.13
2022-07-30T19:20:54.117Z,101828.28
2022-07-30T19:23:20.976Z,101832.78
2022-07-30T19:25:47.950Z,101828.34
2022-07-30T19:28:17.090Z,101835.09
2022-07-30T19:30:44.028Z,101835.69
2022-07-30T19:33:15.622Z,101836.03
2022-07-30T19:35:43.157Z,101844.47
2022-07-30T19:38:11.960Z,101839.19
2022-07-30T19:40:49.251Z,101840.84
2022-07-30T19:43:16.212Z,101841.78
2022-07-30T19:45:47.756Z,101846.34
2022-07-30T19:48:29.535Z,101839.28
2022-07-30T19:51:00.725Z,101846.75
2022-07-30T19:53:31.447Z,101836.50
2022-07-30T19:56:04.433Z,101839.81
2022-07-30T19:58:36.697Z,101839.88
2022-07-30T20:01:08.398Z,101839.81
2022-07-30T20:03:37.010Z,101839.56
2022-07-30T20:06:07.261Z,101844.91
2022-07-30T20:08:36.674Z,101840.56
2022-07-30T20:11:07.357Z,101841.03
2022-07-30T20:13:44.879Z,101843.56
2022-07-30T20:16:15.482Z,101837.75
2022-07-30T20:18:44.501Z,101839.16
2022-07-30T20:21:15.620Z,101840.06
2022-07-30T20:23:44.695Z,101838.63
2022-07-30T20:26:14.266Z,101833.59
2022-07-30T20:28:43.264Z,101835.06
2022-07-30T20:31:13.052Z,101836.69
2022-07-30T20:33:40.304Z,101841.38
2022-07-30T20:36:09.701Z,101841.56
2022-07-30T20:38:38.899Z,101839.25
2022-07-30T20:41:09.808Z,101837.50
2022-07-30T20:43:45.840Z,101844.31
2022-07-30T20:46:18.545Z,101846.63
2022-07-30T20:48:46.210Z,101842.50
2022-07-30T20:51:13.226Z,101843.47
2022-07-30T20:53:41.858Z,101841.75
2022-07-30T20:56:13.443Z,101845.13
2022-07-30T20:58:59.936Z,101850.13
2022-07-30T21:01:30.737Z,101850.38
2022-07-30T21:03:57.768Z,101850.47
2022-07-30T21:06:26.267Z,101850.47
2022-07-30T21:08:53.633Z,101844.44
2022-07-30T21:11:22.535Z,101851.22
2022-07-30T21:13:49.367Z,101838.88
2022-07-30T21:16:16.897Z,101832.00
2022-07-30T21:18:49.642Z,101833.03
2022-07-30T21:21:30.591Z,101832.38
2022-07-30T21:24:05.668Z,101829.31
2022-07-30T21:26:32.544Z,101820.63
2022-07-30T21:29:00.848Z,101815.09
2022-07-30T21:31:58.070Z,101812.34
2022-07-30T21:34:14.915Z,101797.44
2022-07-30T21:36:43.102Z,101806.84
2022-07-30T21:39:10.051Z,101806.56
2022-07-30T21:41:41.176Z,101804.69
2022-07-30T21:44:09.719Z,101799.16
2022-07-30T21:46:38.018Z,101806.84
2022-07-30T21:49:07.040Z,101796.47
2022-07-30T21:51:34.724Z,101798.53
2022-07-30T21:54:01.700Z,101794.25
2022-07-30T21:56:34.157Z,101797.63
2022-07-30T21:59:01.039Z,101793.13
2022-07-30T22:01:27.855Z,101797.00
2022-07-30T22:04:02.955Z,101792.88
2022-07-30T22:06:35.531Z,101793.16
2022-07-30T22:09:10.142Z,101795.50
2022-07-30T22:14:33.268Z,101792.78
2022-07-30T22:17:00.439Z,101796.13
2022-07-30T22:19:27.327Z,101794.56
2022-07-30T22:21:54.406Z,101801.13
2022-07-30T22:24:29.576Z,101795.63
2022-07-30T22:27:10.749Z,101796.53
2022-07-30T22:29:43.103Z,101789.59
2022-07-30T22:32:11.618Z,101791.81
2022-07-30T22:34:38.533Z,101786.28
2022-07-30T22:39:54.292Z,101797.56
2022-07-30T22:42:24.063Z,101781.38
2022-07-30T22:44:53.033Z,101792.09
2022-07-30T22:47:51.070Z,101785.44
2022-07-30T22:50:08.971Z,101789.75
2022-07-30T22:52:40.112Z,101781.13
2022-07-30T22:55:22.201Z,101783.31
2022-07-30T22:57:49.441Z,101777.22
2022-07-30T23:00:28.035Z,101775.00
2022-07-30T23:02:56.589Z,101763.75
2022-07-30T23:05:24.584Z,101762.00
2022-07-30T23:07:51.783Z,101770.97
2022-07-30T23:12:28.965Z,101794.38
2022-07-30T23:12:31.001Z,101762.16
2022-07-30T23:12:32.586Z,101792.69
2022-07-30T23:15:38.218Z,101758.41
2022-07-30T23:18:05.406Z,101756.66
2022-07-30T23:20:32.290Z,101754.44
2022-07-30T23:23:01.480Z,101749.41
2022-07-30T23:25:38.491Z,101747.34
2022-07-30T23:28:06.171Z,101742.63
2022-07-30T23:30:34.126Z,101746.38
2022-07-30T23:33:02.210Z,101737.00
2022-07-30T23:35:29.080Z,101745.03
2022-07-30T23:37:55.903Z,101744.91
2022-07-30T23:40:23.415Z,101745.06
2022-07-30T23:42:51.011Z,101740.72
2022-07-30T23:45:18.433Z,101735.06
2022-07-30T23:48:01.335Z,101739.00
2022-07-30T23:50:32.178Z,101737.91
2022-07-30T23:52:59.831Z,101735.88
2022-07-30T23:55:27.230Z,101737.19
2022-07-30T23:57:54.739Z,101740.81
